Time,TemperatureF,DewpointF,PressureIn,WindDirection,WindDirectionDegrees,WindSpeedMPH,WindSpeedGustMPH,Humidity,HourlyPrecipIn,Conditions,Clouds,dailyrainin,SoftwareType,DateUTC
2013-02-24 00:04:00,41.7,41.2,29.69,NNW,337,0.0,-999.0,98,-99.99,,,0.00,Acu-Link.com,2013-02-24 05:04:00,
2013-02-24 00:19:00,41.2,40.7,29.68,North,0,0.0,-999.0,98,-99.99,,,0.00,Acu-Link.com,2013-02-24 05:19:00,
2013-02-24 00:34:00,41.2,40.7,29.69,NNW,337,0.0,-999.0,98,-99.99,,,0.00,Acu-Link.com,2013-02-24 05:34:00,
2013-02-24 00:49:00,41.4,40.9,29.69,East,90,0.0,-999.0,98,-99.99,,,0.00,Acu-Link.com,2013-02-24 05:49:00,
2013-02-24 01:05:00,40.5,40.0,29.70,NNW,337,0.0,-999.0,98,-99.99,,,0.00,Acu-Link.com,2013-02-24 06:05:00,
2013-02-24 01:20:00,40.1,39.6,29.70,NNW,337,0.0,-999.0,98,-99.99,,,0.00,Acu-Link.com,2013-02-24 06:20:00,
2013-02-24 01:35:00,39.6,39.1,29.70,SSE,157,0.0,-999.0,98,-99.99,,,0.00,Acu-Link.com,2013-02-24 06:35:00,
2013-02-24 01:50:00,39.2,38.7,29.71,ESE,112,0.0,-999.0,98,-99.99,,,0.00,Acu-Link.com,2013-02-24 06:50:00,
2013-02-24 02:05:00,38.5,38.0,29.71,ESE,112,0.0,-999.0,98,-99.99,,,0.00,Acu-Link.com,2013-02-24 07:05:00,
2013-02-24 02:20:00,37.6,37.1,29.71,ESE,112,0.0,-999.0,98,-99.99,,,0.00,Acu-Link.com,2013-02-24 07:20:00,
2013-02-24 02:35:00,37.2,36.7,29.71,ESE,112,0.0,-999.0,98,-99.99,,,0.00,Acu-Link.com,2013-02-24 07:35:00,
2013-02-24 02:50:00,36.5,36.0,29.71,ESE,112,0.0,-999.0,98,-99.99,,,0.00,Acu-Link.com,2013-02-24 07:50:00,
2013-02-24 03:05:00,36.1,35.6,29.72,ESE,112,0.0,-999.0,98,-99.99,,,0.00,Acu-Link.com,2013-02-24 08:05:00,
2013-02-24 03:21:00,36.0,35.5,29.72,ESE,112,0.0,-999.0,98,-99.99,,,0.00,Acu-Link.com,2013-02-24 08:21:00,
2013-02-24 03:36:00,36.1,35.6,29.72,ESE,112,0.0,-999.0,98,-99.99,,,0.00,Acu-Link.com,2013-02-24 08:36:00,
2013-02-24 03:51:00,35.6,35.1,29.72,ESE,112,0.0,-999.0,98,-99.99,,,0.00,Acu-Link.com,2013-02-24 08:51:00,
2013-02-24 04:18:00,35.4,34.9,29.72,ESE,112,0.0,-999.0,98,-99.99,,,0.00,Acu-Link.com,2013-02-24 09:18:00,
2013-02-24 04:33:00,35.2,34.7,29.72,NNW,337,0.0,-999.0,98,-99.99,,,0.00,Acu-Link.com,2013-02-24 09:33:00,
2013-02-24 04:49:00,34.7,34.2,29.73,SSE,157,0.0,-999.0,98,-99.99,,,0.00,Acu-Link.com,2013-02-24 09:49:00,
2013-02-24 05:04:00,34.0,33.5,29.73,NNE,22,0.0,-999.0,98,-99.99,,,0.00,Acu-Link.com,2013-02-24 10:04:00,
2013-02-24 05:19:00,34.0,33.5,29.74,WNW,292,0.0,-999.0,98,-99.99,,,0.00,Acu-Link.com,2013-02-24 10:19:00,
2013-02-24 05:34:00,33.4,32.9,29.75,NNW,337,0.0,-999.0,98,-99.99,,,0.00,Acu-Link.com,2013-02-24 10:34:00,
2013-02-24 05:49:00,32.9,32.4,29.76,NNW,337,0.0,-999.0,98,-99.99,,,0.00,Acu-Link.com,2013-02-24 10:49:00,
2013-02-24 06:04:00,32.4,31.9,29.77,NNW,337,0.0,-999.0,98,-99.99,,,0.00,Acu-Link.com,2013-02-24 11:04:00,
2013-02-24 06:19:00,32.0,31.5,29.77,NNE,22,0.0,-999.0,98,-99.99,,,0.00,Acu-Link.com,2013-02-24 11:19:00,
2013-02-24 06:35:00,32.7,32.2,29.77,SSW,202,0.0,-999.0,98,-99.99,,,0.00,Acu-Link.com,2013-02-24 11:35:00,
2013-02-24 06:50:00,32.0,31.5,29.78,WSW,247,0.0,-999.0,98,-99.99,,,0.00,Acu-Link.com,2013-02-24 11:50:00,
2013-02-24 07:05:00,31.6,31.1,29.78,NW,315,0.0,-999.0,98,-99.99,,,0.00,Acu-Link.com,2013-02-24 12:05:00,
2013-02-24 07:20:00,31.6,31.1,29.78,North,0,0.0,-999.0,98,-99.99,,,0.00,Acu-Link.com,2013-02-24 12:20:00,
2013-02-24 07:35:00,31.8,31.3,29.80,SSE,157,0.0,-999.0,98,-99.99,,,0.00,Acu-Link.com,2013-02-24 12:35:00,
2013-02-24 07:50:00,31.8,31.3,29.81,ESE,112,0.0,-999.0,98,-99.99,,,0.00,Acu-Link.com,2013-02-24 12:50:00,
2013-02-24 08:05:00,32.4,31.9,29.79,NNW,337,0.0,-999.0,98,-99.99,,,0.00,Acu-Link.com,2013-02-24 13:05:00,
2013-02-24 08:21:00,33.8,33.3,29.79,NW,315,0.0,-999.0,98,-99.99,,,0.00,Acu-Link.com,2013-02-24 13:21:00,
2013-02-24 08:36:00,35.2,34.7,29.80,SSW,202,0.0,-999.0,98,-99.99,,,0.00,Acu-Link.com,2013-02-24 13:36:00,
2013-02-24 08:51:00,36.7,36.2,29.81,NE,45,0.0,-999.0,98,-99.99,,,0.00,Acu-Link.com,2013-02-24 13:51:00,
2013-02-24 09:06:00,38.8,38.3,29.81,NW,315,1.1,-999.0,98,-99.99,,,0.00,Acu-Link.com,2013-02-24 14:06:00,
2013-02-24 09:21:00,41.2,40.7,29.82,West,270,0.0,-999.0,98,-99.99,,,0.00,Acu-Link.com,2013-02-24 14:21:00,
2013-02-24 09:36:00,43.3,42.8,29.81,West,270,0.0,-999.0,98,-99.99,,,0.00,Acu-Link.com,2013-02-24 14:36:00,
2013-02-24 09:52:00,45.7,41.5,29.82,NW,315,1.1,-999.0,85,-99.99,,,0.00,Acu-Link.com,2013-02-24 14:52:00,
2013-02-24 10:07:00,46.2,40.4,29.83,WNW,292,0.0,-999.0,80,-99.99,,,0.00,Acu-Link.com,2013-02-24 15:07:00,
2013-02-24 10:22:00,46.8,39.0,29.83,North,0,0.0,-999.0,74,-99.99,,,0.00,Acu-Link.com,2013-02-24 15:22:00,
2013-02-24 10:37:00,49.3,40.3,29.83,WNW,292,2.7,-999.0,71,-99.99,,,0.00,Acu-Link.com,2013-02-24 15:37:00,
2013-02-24 10:52:00,47.7,36.5,29.83,West,270,0.0,-999.0,65,-99.99,,,0.00,Acu-Link.com,2013-02-24 15:52:00,
2013-02-24 11:07:00,49.1,39.7,29.83,WNW,292,0.0,-999.0,70,-99.99,,,0.00,Acu-Link.com,2013-02-24 16:07:00,
2013-02-24 11:23:00,50.0,37.1,29.83,WNW,292,1.7,-999.0,61,-99.99,,,0.00,Acu-Link.com,2013-02-24 16:23:00,
2013-02-24 11:38:00,49.3,36.8,29.83,South,180,1.1,-999.0,62,-99.99,,,0.00,Acu-Link.com,2013-02-24 16:38:00,
2013-02-24 11:53:00,50.7,38.2,29.83,WNW,292,0.0,-999.0,62,-99.99,,,0.00,Acu-Link.com,2013-02-24 16:53:00,
2013-02-24 12:08:00,52.3,38.4,29.82,WNW,292,2.7,-999.0,59,-99.99,,,0.00,Acu-Link.com,2013-02-24 17:08:00,
2013-02-24 12:23:00,54.5,40.0,29.82,SW,225,0.0,-999.0,58,-99.99,,,0.00,Acu-Link.com,2013-02-24 17:23:00,
2013-02-24 12:38:00,56.1,40.6,29.82,South,180,0.0,-999.0,56,-99.99,,,0.00,Acu-Link.com,2013-02-24 17:38:00,
2013-02-24 12:53:00,57.2,40.2,29.82,NNW,337,1.1,-999.0,53,-99.99,,,0.00,Acu-Link.com,2013-02-24 17:53:00,
2013-02-24 13:08:00,56.8,40.3,29.82,South,180,1.7,-999.0,54,-99.99,,,0.00,Acu-Link.com,2013-02-24 18:08:00,
2013-02-24 13:23:00,56.8,37.3,29.80,West,270,1.1,-999.0,48,-99.99,,,0.00,Acu-Link.com,2013-02-24 18:23:00,
2013-02-24 13:38:00,59.9,40.7,29.80,West,270,0.0,-999.0,49,-99.99,,,0.00,Acu-Link.com,2013-02-24 18:38:00,
2013-02-24 13:54:00,59.5,39.8,29.79,SSW,202,1.1,-999.0,48,-99.99,,,0.00,Acu-Link.com,2013-02-24 18:54:00,
2013-02-24 14:09:00,59.7,37.8,29.79,NW,315,1.7,-999.0,44,-99.99,,,0.00,Acu-Link.com,2013-02-24 19:09:00,
2013-02-24 14:24:00,59.4,36.9,29.78,SE,135,1.1,-999.0,43,-99.99,,,0.00,Acu-Link.com,2013-02-24 19:24:00,
2013-02-24 14:39:00,60.8,37.6,29.78,ESE,112,0.0,-999.0,42,-99.99,,,0.00,Acu-Link.com,2013-02-24 19:39:00,
2013-02-24 14:54:00,60.1,35.1,29.78,WNW,292,1.1,-999.0,39,-99.99,,,0.00,Acu-Link.com,2013-02-24 19:54:00,
2013-02-24 15:09:00,60.1,36.3,29.78,NNW,337,2.7,-999.0,41,-99.99,,,0.00,Acu-Link.com,2013-02-24 20:09:00,
2013-02-24 15:24:00,59.2,32.9,29.77,West,270,1.1,-999.0,37,-99.99,,,0.00,Acu-Link.com,2013-02-24 20:24:00,
2013-02-24 15:39:00,59.4,35.1,29.76,SW,225,2.2,-999.0,40,-99.99,,,0.00,Acu-Link.com,2013-02-24 20:39:00,
2013-02-24 15:54:00,58.8,33.9,29.76,NW,315,1.7,-999.0,39,-99.99,,,0.00,Acu-Link.com,2013-02-24 20:54:00,
2013-02-24 16:10:00,58.8,36.4,29.75,South,180,1.1,-999.0,43,-99.99,,,0.00,Acu-Link.com,2013-02-24 21:10:00,
2013-02-24 16:25:00,59.9,34.2,29.76,North,0,0.0,-999.0,38,-99.99,,,0.00,Acu-Link.com,2013-02-24 21:25:00,
2013-02-24 16:40:00,59.5,34.5,29.76,South,180,0.0,-999.0,39,-99.99,,,0.00,Acu-Link.com,2013-02-24 21:40:00,
2013-02-24 16:55:00,59.2,32.9,29.76,WNW,292,0.0,-999.0,37,-99.99,,,0.00,Acu-Link.com,2013-02-24 21:55:00,
2013-02-24 17:10:00,58.1,33.9,29.76,SSE,157,0.0,-999.0,40,-99.99,,,0.00,Acu-Link.com,2013-02-24 22:10:00,
2013-02-24 17:25:00,58.6,33.1,29.77,SSE,157,0.0,-999.0,38,-99.99,,,0.00,Acu-Link.com,2013-02-24 22:25:00,
2013-02-24 17:40:00,57.2,32.5,29.76,SW,225,0.0,-999.0,39,-99.99,,,0.00,Acu-Link.com,2013-02-24 22:40:00,
2013-02-24 17:55:00,57.0,34.1,29.77,South,180,0.0,-999.0,42,-99.99,,,0.00,Acu-Link.com,2013-02-24 22:55:00,
2013-02-24 18:10:00,55.6,32.9,29.77,SSE,157,0.0,-999.0,42,-99.99,,,0.00,Acu-Link.com,2013-02-24 23:10:00,
2013-02-24 18:26:00,54.1,32.7,29.78,SSE,157,0.0,-999.0,44,-99.99,,,0.00,Acu-Link.com,2013-02-24 23:26:00,
2013-02-24 18:41:00,52.9,33.2,29.78,SSE,157,0.0,-999.0,47,-99.99,,,0.00,Acu-Link.com,2013-02-24 23:41:00,
2013-02-24 18:56:00,51.1,33.6,29.78,WNW,292,0.0,-999.0,51,-99.99,,,0.00,Acu-Link.com,2013-02-24 23:56:00,
2013-02-24 19:11:00,50.2,34.2,29.77,WNW,292,0.0,-999.0,54,-99.99,,,0.00,Acu-Link.com,2013-02-25 00:11:00,
2013-02-24 19:26:00,49.3,34.7,29.76,North,0,0.0,-999.0,57,-99.99,,,0.00,Acu-Link.com,2013-02-25 00:26:00,
2013-02-24 19:41:00,48.6,35.4,29.76,North,0,0.0,-999.0,60,-99.99,,,0.00,Acu-Link.com,2013-02-25 00:41:00,
2013-02-24 19:56:00,47.8,35.0,29.76,NNW,337,0.0,-999.0,61,-99.99,,,0.00,Acu-Link.com,2013-02-25 00:56:00,
2013-02-24 20:11:00,46.4,36.4,29.77,NNE,22,0.0,-999.0,68,-99.99,,,0.00,Acu-Link.com,2013-02-25 01:11:00,
2013-02-24 20:26:00,45.3,36.8,29.77,NE,45,0.0,-999.0,72,-99.99,,,0.00,Acu-Link.com,2013-02-25 01:26:00,
2013-02-24 20:42:00,44.6,37.2,29.78,NNE,22,0.0,-999.0,75,-99.99,,,0.00,Acu-Link.com,2013-02-25 01:42:00,
2013-02-24 20:57:00,43.5,39.0,29.77,South,180,0.0,-999.0,84,-99.99,,,0.00,Acu-Link.com,2013-02-25 01:57:00,
2013-02-24 21:12:00,42.4,41.9,29.77,North,0,0.0,-999.0,98,-99.99,,,0.00,Acu-Link.com,2013-02-25 02:12:00,
2013-02-24 21:27:00,42.3,41.0,29.78,North,0,0.0,-999.0,95,-99.99,,,0.00,Acu-Link.com,2013-02-25 02:27:00,
2013-02-24 21:42:00,41.0,40.5,29.78,NNW,337,0.0,-999.0,98,-99.99,,,0.00,Acu-Link.com,2013-02-25 02:42:00,
2013-02-24 21:57:00,40.3,39.8,29.79,NNE,22,0.0,-999.0,98,-99.99,,,0.00,Acu-Link.com,2013-02-25 02:57:00,
2013-02-24 22:12:00,39.9,39.4,29.78,North,0,0.0,-999.0,98,-99.99,,,0.00,Acu-Link.com,2013-02-25 03:12:00,
2013-02-24 22:28:00,39.4,38.9,29.78,West,270,0.0,-999.0,98,-99.99,,,0.00,Acu-Link.com,2013-02-25 03:28:00,
2013-02-24 22:43:00,39.4,38.9,29.77,NNW,337,0.0,-999.0,98,-99.99,,,0.00,Acu-Link.com,2013-02-25 03:43:00,
2013-02-24 22:58:00,39.4,38.9,29.78,North,0,0.0,-999.0,98,-99.99,,,0.00,Acu-Link.com,2013-02-25 03:58:00,
2013-02-24 23:14:00,39.2,38.7,29.78,SSE,157,0.0,-999.0,98,-99.99,,,0.00,Acu-Link.com,2013-02-25 04:14:00,
2013-02-24 23:29:00,38.5,38.0,29.77,ESE,112,0.0,-999.0,98,-99.99,,,0.00,Acu-Link.com,2013-02-25 04:29:00,
2013-02-24 23:44:00,37.9,37.4,29.77,North,0,0.0,-999.0,98,-99.99,,,0.00,Acu-Link.com,2013-02-25 04:44:00,
2013-02-24 23:59:00,37.4,36.9,29.77,North,0,0.0,-999.0,98,-99.99,,,0.00,Acu-Link.com,2013-02-25 04:59:00,